Antonio Carlos, Brazil
Current Conditions -  °F | °C
As of 8:00 AM on Thursday 29 Jan 2015 (Local Time) from SBBQ Reporting Station
Clear Clear  
Wind Chill: 64°   Ceiling: Unl
Heat Index: 64°   Visibility: 5mi
Dew Point: 63°   Wind: 0mph
Humidity: 94%   Direction: NA
Pressure: 30.18"   Gusts: NA
Location:  21.32°S, 43.75°W
Report Text: SBBQ 291000Z 00000KT 8000 NSC 18/17 Q1022
Loading
Personal Weather Stations






























Interactive Weather Map New forecast layout! Learn more

10-Day Weather Forecast

Advertisements
Track Severe Weather on mobile